createdAt,value
2023-02-22T00:02:11.305Z,86.03
2023-02-22T00:04:39.928Z,87.13
2023-02-22T00:07:07.374Z,88.16
2023-02-22T00:09:34.389Z,88.16
2023-02-22T00:12:01.527Z,87.89
2023-02-22T00:14:28.866Z,88.96
2023-02-22T00:16:59.991Z,89.06
2023-02-22T00:19:28.296Z,89.29
2023-02-22T00:21:55.222Z,89.38
2023-02-22T00:24:23.603Z,90.04
2023-02-22T00:26:52.823Z,89.86
2023-02-22T00:29:19.623Z,89.03
2023-02-22T00:31:46.617Z,89.72
2023-02-22T00:34:14.222Z,90.31
2023-02-22T00:36:44.112Z,91.08
2023-02-22T00:39:11.596Z,90.89
2023-02-22T00:41:38.554Z,91.20
2023-02-22T00:44:05.447Z,91.63
2023-02-22T00:46:32.295Z,92.47
2023-02-22T00:48:59.315Z,92.39
2023-02-22T00:51:27.098Z,93.23
2023-02-22T00:53:54.214Z,92.55
2023-02-22T00:56:21.156Z,92.50
2023-02-22T00:58:48.021Z,92.05
2023-02-22T01:01:15.345Z,92.04
2023-02-22T01:03:42.549Z,92.44
2023-02-22T01:06:09.617Z,93.32
2023-02-22T01:08:36.504Z,93.29
2023-02-22T01:11:03.662Z,93.29
2023-02-22T01:13:30.570Z,93.13
2023-02-22T01:15:57.624Z,92.49
2023-02-22T01:18:26.402Z,93.05
2023-02-22T01:20:53.230Z,93.13
2023-02-22T01:23:20.184Z,92.95
2023-02-22T01:25:47.072Z,93.20
2023-02-22T01:28:14.131Z,93.32
2023-02-22T01:30:41.248Z,92.39
2023-02-22T01:33:08.640Z,92.68
2023-02-22T01:35:37.627Z,93.32
2023-02-22T01:38:04.992Z,93.47
2023-02-22T01:40:33.699Z,93.33
2023-02-22T01:43:02.669Z,93.34
2023-02-22T01:45:31.003Z,93.00
2023-02-22T01:48:01.128Z,92.89
2023-02-22T01:50:28.472Z,92.72
2023-02-22T01:52:55.711Z,92.71
2023-02-22T01:55:22.628Z,92.85
2023-02-22T01:57:49.786Z,93.46
2023-02-22T02:00:20.494Z,93.77
2023-02-22T02:02:51.576Z,93.28
2023-02-22T02:05:18.845Z,92.47
2023-02-22T02:07:46.854Z,92.65
2023-02-22T02:10:15.682Z,92.85
2023-02-22T02:12:44.659Z,92.74
2023-02-22T02:15:14.632Z,93.06
2023-02-22T02:17:41.514Z,93.63
2023-02-22T02:20:11.341Z,93.29
2023-02-22T02:22:38.699Z,93.50
2023-02-22T02:25:05.939Z,93.59
2023-02-22T02:27:35.792Z,93.91
2023-02-22T02:30:05.775Z,93.46
2023-02-22T02:32:35.803Z,93.21
2023-02-22T02:35:05.863Z,92.94
2023-02-22T02:37:33.562Z,92.56
2023-02-22T02:40:11.681Z,92.78
2023-02-22T02:42:43.007Z,93.10
2023-02-22T02:45:14.135Z,93.28
2023-02-22T02:47:46.128Z,93.77
2023-02-22T02:50:16.144Z,93.38
2023-02-22T02:52:45.646Z,93.70
2023-02-22T02:55:13.509Z,93.32
2023-02-22T02:57:40.446Z,93.00
2023-02-22T03:00:11.245Z,93.08
2023-02-22T03:02:38.496Z,92.39
2023-02-22T03:05:08.379Z,92.55
2023-02-22T03:07:38.717Z,92.61
2023-02-22T03:10:08.699Z,92.56
2023-02-22T03:12:43.022Z,91.98
2023-02-22T03:15:13.079Z,91.86
2023-02-22T03:17:46.058Z,92.33
2023-02-22T03:20:20.820Z,92.24
2023-02-22T03:22:54.972Z,92.32
2023-02-22T03:25:29.974Z,92.17
2023-02-22T03:28:02.672Z,92.44
2023-02-22T03:30:29.946Z,91.61
2023-02-22T03:33:00.652Z,91.59
2023-02-22T03:35:31.640Z,92.20
2023-02-22T03:38:00.798Z,92.50
2023-02-22T03:40:30.938Z,92.70
2023-02-22T03:43:00.654Z,92.40
2023-02-22T03:45:29.222Z,92.70
2023-02-22T03:47:59.227Z,92.45
2023-02-22T03:50:30.055Z,92.84
2023-02-22T03:52:59.320Z,93.34
2023-02-22T03:55:26.406Z,93.31
2023-02-22T03:57:57.778Z,93.09
2023-02-22T04:00:25.886Z,92.97
2023-02-22T04:02:53.031Z,92.99
2023-02-22T04:05:19.967Z,92.78
2023-02-22T04:07:46.859Z,92.47
2023-02-22T04:10:14.482Z,91.83
2023-02-22T04:12:41.324Z,92.13
2023-02-22T04:15:09.086Z,92.10
2023-02-22T04:17:35.930Z,92.63
2023-02-22T04:20:04.187Z,92.20
2023-02-22T04:22:31.023Z,92.92
2023-02-22T04:24:57.888Z,93.02
2023-02-22T04:27:24.683Z,92.66
2023-02-22T04:29:51.567Z,92.41
2023-02-22T04:32:18.508Z,92.33
2023-02-22T04:34:45.372Z,92.58
2023-02-22T04:37:12.756Z,92.92
2023-02-22T04:39:39.768Z,92.46
2023-02-22T04:42:06.634Z,92.64
2023-02-22T04:44:33.585Z,92.49
2023-02-22T04:47:00.506Z,92.67
2023-02-22T04:49:27.327Z,92.76
2023-02-22T04:51:54.286Z,92.96
2023-02-22T04:54:21.304Z,92.66
2023-02-22T04:56:48.349Z,92.21
2023-02-22T04:59:15.328Z,92.25
2023-02-22T05:01:42.180Z,92.26
2023-02-22T05:04:09.219Z,92.29
2023-02-22T05:06:36.097Z,92.60
2023-02-22T05:09:03.264Z,92.28
2023-02-22T05:11:30.174Z,92.38
2023-02-22T05:13:57.040Z,92.19
2023-02-22T05:16:24.242Z,92.77
2023-02-22T05:18:51.372Z,93.21
2023-02-22T05:21:18.546Z,93.18
2023-02-22T05:23:45.521Z,93.50
2023-02-22T05:26:12.431Z,93.76
2023-02-22T05:28:39.494Z,93.93
2023-02-22T05:31:07.648Z,94.40
2023-02-22T05:33:34.615Z,94.74
2023-02-22T05:36:01.490Z,94.22
2023-02-22T05:38:28.698Z,94.45
2023-02-22T05:40:55.549Z,94.71
2023-02-22T05:43:22.484Z,95.86
2023-02-22T05:45:49.390Z,96.05
2023-02-22T05:48:16.604Z,95.69
2023-02-22T05:50:44.314Z,94.95
2023-02-22T05:53:11.223Z,94.53
2023-02-22T05:55:38.088Z,94.95
2023-02-22T05:58:06.097Z,94.57
2023-02-22T06:00:32.957Z,94.98
2023-02-22T06:03:02.776Z,94.68
2023-02-22T06:05:29.897Z,94.73
2023-02-22T06:07:57.192Z,94.89
2023-02-22T06:10:24.572Z,94.75
2023-02-22T06:12:51.458Z,94.91
2023-02-22T06:15:19.083Z,95.39
2023-02-22T06:17:46.157Z,95.39
2023-02-22T06:20:14.262Z,95.01
2023-02-22T06:22:42.313Z,95.24
2023-02-22T06:25:10.041Z,94.42
2023-02-22T06:27:37.476Z,94.93
2023-02-22T06:30:05.351Z,95.77
2023-02-22T06:32:32.253Z,95.47
2023-02-22T06:34:59.327Z,95.17
2023-02-22T06:37:26.163Z,94.83
2023-02-22T06:39:52.988Z,95.07
2023-02-22T06:42:19.877Z,94.93
2023-02-22T06:44:46.808Z,95.21
2023-02-22T06:47:13.774Z,95.94
2023-02-22T06:49:40.686Z,95.50
2023-02-22T06:52:08.645Z,95.48
2023-02-22T06:54:36.014Z,95.58
2023-02-22T06:57:02.915Z,95.68
2023-02-22T06:59:29.806Z,95.72
2023-02-22T07:01:56.762Z,95.12
2023-02-22T07:04:23.653Z,95.47
2023-02-22T07:06:50.943Z,96.16
2023-02-22T07:09:18.831Z,96.11
2023-02-22T07:11:45.766Z,95.71
2023-02-22T07:14:12.719Z,96.01
2023-02-22T07:16:39.633Z,96.39
2023-02-22T07:19:06.612Z,96.44
2023-02-22T07:21:33.479Z,96.82
2023-02-22T07:24:00.510Z,97.02
2023-02-22T07:26:27.876Z,96.84
2023-02-22T07:28:54.754Z,96.88
2023-02-22T07:31:21.863Z,97.20
2023-02-22T07:33:49.332Z,97.08
2023-02-22T07:36:18.326Z,97.09
2023-02-22T07:38:46.587Z,96.59
2023-02-22T07:41:13.571Z,96.83
2023-02-22T07:43:40.440Z,97.08
2023-02-22T07:46:07.759Z,97.19
2023-02-22T07:48:34.783Z,97.68
2023-02-22T07:51:01.697Z,98.08
2023-02-22T07:53:30.521Z,97.90
2023-02-22T07:55:58.405Z,97.47
2023-02-22T07:58:26.298Z,98.97
2023-02-22T08:00:53.735Z,99.51
2023-02-22T08:03:21.902Z,98.95
2023-02-22T08:05:50.474Z,98.05
2023-02-22T08:08:19.872Z,97.84
2023-02-22T08:10:47.627Z,98.27
2023-02-22T08:13:14.965Z,98.52
2023-02-22T08:15:42.459Z,98.42
2023-02-22T08:18:10.321Z,98.25
2023-02-22T08:20:38.415Z,98.01
2023-02-22T08:23:06.257Z,98.00
2023-02-22T08:25:33.478Z,97.97
2023-02-22T08:28:01.677Z,97.90
2023-02-22T08:30:30.048Z,97.33
2023-02-22T08:32:58.535Z,97.18
2023-02-22T08:35:25.604Z,97.78
2023-02-22T08:37:54.007Z,97.99
2023-02-22T08:40:22.384Z,97.89
2023-02-22T08:42:49.579Z,97.62
2023-02-22T08:45:16.960Z,97.32
2023-02-22T08:47:44.484Z,97.41
2023-02-22T08:50:17.154Z,97.88
2023-02-22T08:52:44.111Z,98.13
2023-02-22T08:55:11.258Z,97.81
2023-02-22T08:57:38.476Z,98.23
2023-02-22T09:00:05.941Z,98.58
2023-02-22T09:02:32.963Z,98.48
2023-02-22T09:04:59.921Z,98.14
2023-02-22T09:07:26.833Z,98.04
2023-02-22T09:09:54.190Z,97.77
2023-02-22T09:12:21.252Z,97.45
2023-02-22T09:14:48.192Z,97.27
2023-02-22T09:17:15.349Z,97.06
2023-02-22T09:19:42.387Z,96.62
2023-02-22T09:22:09.365Z,96.74
2023-02-22T09:24:36.476Z,96.66
2023-02-22T09:27:04.782Z,96.26
2023-02-22T09:29:31.763Z,96.14
2023-02-22T09:31:58.821Z,96.24
2023-02-22T09:34:28.952Z,95.94
2023-02-22T09:36:57.728Z,95.99
2023-02-22T09:39:24.740Z,95.96
2023-02-22T09:41:55.456Z,96.29
2023-02-22T09:44:29.693Z,95.83
2023-02-22T09:46:58.370Z,95.80
2023-02-22T09:49:30.047Z,95.25
2023-02-22T09:52:00.102Z,95.04
2023-02-22T09:54:27.368Z,95.38
2023-02-22T09:56:57.746Z,95.66
2023-02-22T09:59:28.037Z,95.44
2023-02-22T10:01:58.726Z,95.32
2023-02-22T10:04:30.787Z,94.96
2023-02-22T10:07:06.305Z,95.35
2023-02-22T10:09:38.012Z,95.28
2023-02-22T10:12:11.462Z,95.16
2023-02-22T10:14:43.872Z,95.23
2023-02-22T10:17:14.099Z,94.92
2023-02-22T10:19:44.226Z,94.55
2023-02-22T10:22:14.215Z,95.09
2023-02-22T10:24:42.474Z,94.38
2023-02-22T10:27:16.900Z,94.25
2023-02-22T10:29:46.923Z,93.93
2023-02-22T10:32:18.903Z,93.77
2023-02-22T10:34:49.388Z,93.53
2023-02-22T10:37:17.647Z,93.70
2023-02-22T10:39:47.024Z,94.25
2023-02-22T10:42:14.525Z,94.06
2023-02-22T10:44:42.176Z,94.30
2023-02-22T10:47:11.319Z,94.24
2023-02-22T10:49:41.230Z,94.17
2023-02-22T10:52:11.458Z,94.18
2023-02-22T10:54:40.574Z,93.98
2023-02-22T10:57:08.133Z,93.60
2023-02-22T10:59:36.221Z,93.26
2023-02-22T11:02:11.205Z,93.50
2023-02-22T11:04:41.298Z,92.92
2023-02-22T11:07:10.712Z,93.35
2023-02-22T11:09:41.043Z,93.36
2023-02-22T11:12:09.339Z,93.50
2023-02-22T11:14:36.380Z,93.67
2023-02-22T11:17:07.363Z,93.94
2023-02-22T11:19:34.614Z,93.83
2023-02-22T11:22:10.904Z,93.81
2023-02-22T11:24:48.982Z,94.17
2023-02-22T11:27:19.833Z,94.77
2023-02-22T11:29:51.332Z,94.59
2023-02-22T11:32:22.610Z,94.75
2023-02-22T11:35:03.628Z,95.23
2023-02-22T11:37:37.009Z,94.87
2023-02-22T11:40:05.561Z,94.81
2023-02-22T11:42:32.660Z,94.67
2023-02-22T11:45:02.862Z,94.45
2023-02-22T11:47:29.933Z,94.59
2023-02-22T11:49:58.237Z,94.20
2023-02-22T11:52:30.269Z,93.94
2023-02-22T11:55:04.851Z,93.86
2023-02-22T11:57:32.180Z,93.80
2023-02-22T12:00:02.171Z,93.70
2023-02-22T12:02:37.490Z,93.75
2023-02-22T12:05:08.403Z,93.65
2023-02-22T12:07:38.688Z,93.72
2023-02-22T12:10:09.380Z,93.58
2023-02-22T12:12:39.460Z,93.14
2023-02-22T12:15:14.241Z,92.66
2023-02-22T12:17:59.431Z,92.88
2023-02-22T12:20:32.441Z,94.05
2023-02-22T12:23:02.501Z,93.27
2023-02-22T12:25:32.710Z,92.69
2023-02-22T12:28:09.998Z,92.73
2023-02-22T12:30:41.728Z,93.25
2023-02-22T12:33:13.264Z,93.49
2023-02-22T12:35:43.849Z,93.25
2023-02-22T12:38:12.453Z,94.08
2023-02-22T12:40:42.655Z,94.29
2023-02-22T12:43:12.948Z,94.32
2023-02-22T12:45:43.301Z,94.31
2023-02-22T12:48:13.658Z,94.25
2023-02-22T12:50:43.258Z,94.48
2023-02-22T12:53:13.693Z,94.85
2023-02-22T12:55:46.229Z,94.48
2023-02-22T12:58:22.004Z,94.49
2023-02-22T13:00:52.546Z,94.53
2023-02-22T13:03:22.634Z,94.23
2023-02-22T13:05:53.960Z,94.17
2023-02-22T13:08:21.433Z,93.94
2023-02-22T13:10:57.057Z,94.36
2023-02-22T13:13:27.315Z,94.67
2023-02-22T13:15:57.915Z,94.09
2023-02-22T13:18:32.973Z,93.97
2023-02-22T13:21:00.359Z,94.07
2023-02-22T13:23:30.330Z,93.87
2023-02-22T13:26:03.993Z,93.66
2023-02-22T13:28:34.663Z,93.18
2023-02-22T13:31:03.403Z,93.09
2023-02-22T13:33:30.942Z,92.47
2023-02-22T13:36:01.042Z,92.46
2023-02-22T13:38:29.827Z,92.05
2023-02-22T13:41:00.219Z,92.51
2023-02-22T13:43:30.609Z,92.24
2023-02-22T13:46:00.764Z,92.08
2023-02-22T13:48:31.701Z,91.31
2023-02-22T13:51:02.001Z,90.70
2023-02-22T13:53:35.446Z,89.65
2023-02-22T13:56:02.729Z,89.78
2023-02-22T13:58:32.629Z,90.23
2023-02-22T14:01:01.002Z,89.58
2023-02-22T14:03:36.442Z,88.82
2023-02-22T14:06:04.421Z,87.85
2023-02-22T14:08:34.203Z,88.11
2023-02-22T14:11:02.557Z,88.16
2023-02-22T14:13:31.147Z,87.89
2023-02-22T14:16:00.349Z,87.61
2023-02-22T14:18:32.212Z,87.93
2023-02-22T14:21:02.524Z,88.28
2023-02-22T14:23:32.709Z,88.96
2023-02-22T14:26:03.020Z,89.00
2023-02-22T14:28:33.239Z,88.76
2023-02-22T14:31:03.930Z,88.56
2023-02-22T14:33:34.057Z,87.08
2023-02-22T14:36:01.253Z,86.87
2023-02-22T14:38:30.060Z,85.91
2023-02-22T14:40:59.166Z,86.52
2023-02-22T14:43:26.611Z,86.73
2023-02-22T14:45:56.379Z,86.27
2023-02-22T14:48:27.071Z,86.58
2023-02-22T14:50:58.078Z,86.14
2023-02-22T14:53:29.089Z,85.68
2023-02-22T14:55:59.349Z,85.21
2023-02-22T14:58:30.373Z,83.92
2023-02-22T15:00:57.716Z,83.30
2023-02-22T15:03:33.016Z,83.11
2023-02-22T15:06:03.324Z,82.47
2023-02-22T15:08:32.488Z,82.73
2023-02-22T15:10:59.710Z,82.48
2023-02-22T15:13:28.788Z,82.18
2023-02-22T15:16:00.467Z,82.64
2023-02-22T15:18:32.995Z,82.33
2023-02-22T15:21:06.930Z,81.90
2023-02-22T15:23:37.113Z,82.13
2023-02-22T15:26:04.514Z,81.72
2023-02-22T15:28:31.892Z,80.94
2023-02-22T15:31:02.156Z,79.79
2023-02-22T15:33:34.573Z,79.85
2023-02-22T15:36:01.832Z,79.21
2023-02-22T15:38:30.223Z,79.28
2023-02-22T15:41:00.433Z,77.22
2023-02-22T15:43:30.892Z,76.52
2023-02-22T15:45:59.113Z,76.17
2023-02-22T15:48:27.204Z,75.46
2023-02-22T15:50:58.036Z,74.62
2023-02-22T15:53:27.884Z,75.06
2023-02-22T15:55:56.630Z,75.69
2023-02-22T15:58:26.901Z,75.42
2023-02-22T16:00:57.133Z,75.75
2023-02-22T16:03:27.665Z,76.34
2023-02-22T16:05:57.122Z,77.43
2023-02-22T16:08:24.541Z,77.95
2023-02-22T16:10:54.349Z,77.31
2023-02-22T16:13:31.669Z,76.46
2023-02-22T16:16:02.635Z,76.04
2023-02-22T16:18:34.046Z,75.76
2023-02-22T16:21:03.965Z,75.92
2023-02-22T16:23:33.916Z,76.39
2023-02-22T16:26:03.497Z,76.52
2023-02-22T16:28:31.322Z,76.01
2023-02-22T16:30:58.955Z,76.16
2023-02-22T16:33:30.182Z,76.58
2023-02-22T16:35:57.472Z,76.49
2023-02-22T16:38:28.005Z,76.31
2023-02-22T16:40:56.382Z,76.09
2023-02-22T16:43:25.090Z,76.81
2023-02-22T16:45:53.421Z,77.42
2023-02-22T16:48:22.822Z,80.00
2023-02-22T16:50:51.549Z,79.72
2023-02-22T16:53:20.456Z,77.77
2023-02-22T16:55:48.773Z,78.64
2023-02-22T16:58:16.942Z,78.12
2023-02-22T17:00:43.953Z,79.36
2023-02-22T17:03:15.313Z,79.30
2023-02-22T17:05:42.355Z,79.62
2023-02-22T17:08:09.556Z,78.90
2023-02-22T17:10:37.788Z,78.36
2023-02-22T17:13:21.847Z,78.70
2023-02-22T17:15:50.816Z,79.00
2023-02-22T17:18:22.814Z,79.02
2023-02-22T17:20:51.163Z,78.28
2023-02-22T17:23:19.090Z,78.52
2023-02-22T17:25:49.166Z,78.97
2023-02-22T17:28:16.513Z,78.96
2023-02-22T17:30:45.526Z,79.10
2023-02-22T17:33:16.287Z,78.87
2023-02-22T17:35:43.461Z,78.28
2023-02-22T17:38:10.656Z,78.93
2023-02-22T17:40:38.974Z,78.79
2023-02-22T17:43:09.207Z,78.24
2023-02-22T17:45:39.319Z,78.36
2023-02-22T17:48:06.637Z,78.17
2023-02-22T17:50:34.240Z,78.70
2023-02-22T17:53:01.415Z,78.00
2023-02-22T17:55:28.451Z,78.99
2023-02-22T17:58:00.130Z,79.60
2023-02-22T18:00:32.074Z,80.32
2023-02-22T18:03:01.937Z,80.66
2023-02-22T18:05:29.580Z,80.69
2023-02-22T18:07:56.585Z,80.79
2023-02-22T18:10:26.562Z,80.53
2023-02-22T18:12:54.357Z,79.94
2023-02-22T18:15:22.550Z,79.99
2023-02-22T18:17:49.814Z,79.39
2023-02-22T18:20:22.957Z,80.02
2023-02-22T18:22:50.329Z,80.61
2023-02-22T18:25:17.579Z,81.01
2023-02-22T18:27:44.678Z,81.25
2023-02-22T18:30:12.464Z,81.07
2023-02-22T18:32:40.299Z,81.00
2023-02-22T18:35:07.692Z,80.51
2023-02-22T18:37:35.921Z,80.99
2023-02-22T18:40:04.023Z,81.02
2023-02-22T18:42:31.211Z,80.49
2023-02-22T18:45:01.241Z,80.21
2023-02-22T18:47:28.663Z,80.26
2023-02-22T18:49:55.758Z,80.03
2023-02-22T18:52:22.930Z,80.14
2023-02-22T18:54:50.620Z,79.78
2023-02-22T18:57:18.219Z,80.00
2023-02-22T18:59:45.599Z,80.19
2023-02-22T19:02:14.709Z,80.57
2023-02-22T19:04:44.605Z,79.69
2023-02-22T19:07:18.069Z,77.68
2023-02-22T19:09:45.373Z,77.90
2023-02-22T19:12:12.537Z,71.58
2023-02-22T19:14:39.510Z,71.13
2023-02-22T19:17:07.812Z,71.42
2023-02-22T19:19:35.479Z,71.60
2023-02-22T19:22:02.564Z,71.67
2023-02-22T19:24:29.996Z,71.89
2023-02-22T19:27:00.263Z,71.66
2023-02-22T19:29:27.509Z,71.93
2023-02-22T19:31:54.573Z,73.00
2023-02-22T19:34:24.188Z,73.86
2023-02-22T19:36:51.517Z,74.83
2023-02-22T19:39:20.265Z,75.58
2023-02-22T19:41:47.396Z,75.17
2023-02-22T19:44:14.397Z,75.61
2023-02-22T19:46:41.522Z,75.36
2023-02-22T19:49:08.767Z,75.45
2023-02-22T19:51:35.827Z,76.04
2023-02-22T19:54:03.959Z,76.58
2023-02-22T19:56:31.876Z,76.27
2023-02-22T19:59:00.427Z,76.67
2023-02-22T20:01:30.376Z,75.63
2023-02-22T20:04:00.174Z,75.53
2023-02-22T20:06:30.409Z,75.61
2023-02-22T20:08:57.579Z,74.61
2023-02-22T20:11:25.577Z,75.01
2023-02-22T20:13:52.700Z,75.38
2023-02-22T20:16:20.005Z,74.02
2023-02-22T20:18:47.757Z,74.32
2023-02-22T20:21:18.048Z,74.45
2023-02-22T20:23:45.280Z,74.14
2023-02-22T20:26:14.920Z,73.70
2023-02-22T20:28:41.968Z,73.62
2023-02-22T20:31:11.565Z,74.38
2023-02-22T20:33:42.021Z,74.48
2023-02-22T20:36:11.043Z,74.04
2023-02-22T20:38:38.419Z,73.86
2023-02-22T20:41:07.355Z,74.11
2023-02-22T20:43:34.988Z,74.33
2023-02-22T20:46:03.334Z,75.65
2023-02-22T20:48:30.459Z,74.06
2023-02-22T20:50:57.915Z,74.55
2023-02-22T20:53:25.575Z,74.01
2023-02-22T20:55:56.076Z,73.74
2023-02-22T20:58:23.480Z,74.10
2023-02-22T21:00:50.678Z,73.97
2023-02-22T21:03:17.878Z,74.89
2023-02-22T21:05:45.660Z,73.56
2023-02-22T21:08:13.039Z,73.70
2023-02-22T21:10:42.644Z,73.70
2023-02-22T21:13:11.493Z,73.79
2023-02-22T21:15:43.797Z,74.06
2023-02-22T21:18:11.567Z,74.26
2023-02-22T21:20:41.193Z,73.48
2023-02-22T21:23:08.873Z,74.13
2023-02-22T21:25:38.041Z,74.51
2023-02-22T21:28:05.807Z,74.39
2023-02-22T21:30:33.476Z,74.36
2023-02-22T21:33:01.701Z,74.32
2023-02-22T21:35:28.964Z,73.94
2023-02-22T21:37:56.310Z,73.77
2023-02-22T21:40:26.733Z,73.25
2023-02-22T21:42:53.797Z,73.42
2023-02-22T21:45:23.523Z,73.44
2023-02-22T21:47:55.057Z,73.91
2023-02-22T21:50:22.074Z,74.74
2023-02-22T21:52:49.418Z,75.39
2023-02-22T21:55:16.451Z,75.28
2023-02-22T21:57:43.547Z,75.20
2023-02-22T22:00:14.113Z,75.02
2023-02-22T22:02:41.126Z,75.10
2023-02-22T22:05:09.635Z,74.76
2023-02-22T22:07:36.654Z,75.04
2023-02-22T22:10:07.093Z,76.01
2023-02-22T22:12:39.423Z,75.64
2023-02-22T22:15:06.863Z,75.72
2023-02-22T22:17:34.065Z,75.98
2023-02-22T22:20:01.309Z,76.64
2023-02-22T22:22:28.712Z,76.34
2023-02-22T22:24:55.774Z,75.85
2023-02-22T22:27:22.896Z,75.86
2023-02-22T22:29:49.867Z,76.05
2023-02-22T22:32:17.067Z,76.34
2023-02-22T22:34:44.159Z,76.89
2023-02-22T22:37:11.226Z,76.13
2023-02-22T22:39:38.907Z,76.44
2023-02-22T22:42:06.048Z,76.50
2023-02-22T22:44:41.870Z,76.41
2023-02-22T22:47:12.641Z,76.38
2023-02-22T22:49:40.733Z,76.97
2023-02-22T22:52:09.837Z,76.74
2023-02-22T22:54:37.359Z,77.25
2023-02-22T22:57:04.525Z,77.71
2023-02-22T22:59:32.130Z,77.93
2023-02-22T23:01:59.685Z,77.50
2023-02-22T23:04:26.786Z,78.36
2023-02-22T23:06:54.470Z,78.74
2023-02-22T23:09:23.239Z,78.41
2023-02-22T23:11:54.073Z,79.31
2023-02-22T23:14:22.476Z,79.22
2023-02-22T23:16:51.479Z,79.81
2023-02-22T23:19:20.436Z,79.75
2023-02-22T23:21:48.632Z,80.25
2023-02-22T23:24:16.756Z,80.40
2023-02-22T23:26:49.081Z,80.38
2023-02-22T23:29:17.997Z,80.81
2023-02-22T23:31:48.716Z,81.67
2023-02-22T23:34:17.279Z,82.05
2023-02-22T23:36:45.385Z,82.36
2023-02-22T23:39:13.547Z,82.68
2023-02-22T23:41:44.424Z,82.41
2023-02-22T23:44:17.071Z,83.19
2023-02-22T23:46:44.997Z,83.28
2023-02-22T23:49:11.947Z,83.82
2023-02-22T23:51:39.699Z,84.00
2023-02-22T23:54:07.323Z,83.98
2023-02-22T23:56:35.807Z,84.30
2023-02-22T23:59:09.810Z,82.95
